createdAt,value
2023-11-18T00:01:53.881Z,4.23
2023-11-18T00:04:23.365Z,4.25
2023-11-18T00:06:53.724Z,4.24
2023-11-18T00:09:26.045Z,4.22
2023-11-18T00:11:56.992Z,4.23
2023-11-18T00:14:26.150Z,4.22
2023-11-18T00:16:55.779Z,4.24
2023-11-18T00:19:25.120Z,4.27
2023-11-18T00:21:54.804Z,4.41
2023-11-18T00:24:23.993Z,4.43
2023-11-18T00:26:56.463Z,4.49
2023-11-18T00:29:26.661Z,4.39
2023-11-18T00:31:56.900Z,4.31
2023-11-18T00:34:26.181Z,4.28
2023-11-18T00:36:55.578Z,4.46
2023-11-18T00:39:24.849Z,4.49
2023-11-18T00:41:59.201Z,4.68
2023-11-18T00:44:28.422Z,4.68
2023-11-18T00:46:58.953Z,4.66
2023-11-18T00:49:28.226Z,4.55
2023-11-18T00:51:57.774Z,4.48
2023-11-18T00:54:28.081Z,4.45
2023-11-18T00:56:59.197Z,4.44
2023-11-18T00:59:28.941Z,4.44
2023-11-18T01:01:58.680Z,4.43
2023-11-18T01:04:28.047Z,4.42
2023-11-18T01:06:59.253Z,4.42
2023-11-18T01:09:29.310Z,4.42
2023-11-18T01:12:07.998Z,4.42
2023-11-18T01:14:40.323Z,4.43
2023-11-18T01:17:11.472Z,4.43
2023-11-18T01:19:40.944Z,4.43
2023-11-18T01:22:12.385Z,4.44
2023-11-18T01:24:42.092Z,4.42
2023-11-18T01:27:13.130Z,4.42
2023-11-18T01:29:42.496Z,4.42
2023-11-18T01:32:13.125Z,4.43
2023-11-18T01:34:44.748Z,4.44
2023-11-18T01:37:14.402Z,4.44
2023-11-18T01:39:43.939Z,4.44
2023-11-18T01:42:15.084Z,4.45
2023-11-18T01:44:44.351Z,4.46
2023-11-18T01:47:14.029Z,4.45
2023-11-18T01:49:44.730Z,4.44
2023-11-18T01:52:14.380Z,4.46
2023-11-18T01:54:46.020Z,4.46
2023-11-18T01:57:17.289Z,4.45
2023-11-18T01:59:46.552Z,4.46
2023-11-18T02:02:16.481Z,4.43
2023-11-18T02:04:46.324Z,4.41
2023-11-18T02:07:16.560Z,4.41
2023-11-18T02:09:46.991Z,4.37
2023-11-18T02:12:29.402Z,4.38
2023-11-18T02:15:02.613Z,4.39
2023-11-18T02:17:34.012Z,4.38
2023-11-18T02:20:07.376Z,4.36
2023-11-18T02:22:37.272Z,4.40
2023-11-18T02:25:11.322Z,4.38
2023-11-18T02:27:42.338Z,4.38
2023-11-18T02:30:14.279Z,4.37
2023-11-18T02:32:55.010Z,4.37
2023-11-18T02:35:28.083Z,4.37
2023-11-18T02:37:59.745Z,4.36
2023-11-18T02:40:34.458Z,4.35
2023-11-18T02:43:07.278Z,4.36
2023-11-18T02:45:38.364Z,4.34
2023-11-18T02:48:08.854Z,4.34
2023-11-18T02:50:39.165Z,4.34
2023-11-18T02:53:10.770Z,4.32
2023-11-18T02:55:42.376Z,4.39
2023-11-18T02:58:13.238Z,4.37
2023-11-18T03:00:42.420Z,4.36
2023-11-18T03:03:12.181Z,4.34
2023-11-18T03:05:41.673Z,4.40
2023-11-18T03:08:12.755Z,4.42
2023-11-18T03:10:45.574Z,4.42
2023-11-18T03:13:16.504Z,4.45
2023-11-18T03:15:46.143Z,4.43
2023-11-18T03:18:16.511Z,4.41
2023-11-18T03:20:46.533Z,4.38
2023-11-18T03:23:15.932Z,4.40
2023-11-18T03:25:45.438Z,4.38
2023-11-18T03:28:16.137Z,4.37
2023-11-18T03:31:19.337Z,4.36
2023-11-18T03:33:48.903Z,4.34
2023-11-18T03:36:19.175Z,4.35
2023-11-18T03:38:49.431Z,4.34
2023-11-18T03:41:18.801Z,4.36
2023-11-18T03:43:50.153Z,4.35
2023-11-18T03:46:19.472Z,4.34
2023-11-18T03:48:48.945Z,4.34
2023-11-18T03:51:18.884Z,4.32
2023-11-18T03:53:48.745Z,4.31
2023-11-18T03:56:20.627Z,4.31
2023-11-18T03:58:52.310Z,4.29
2023-11-18T04:01:23.578Z,4.28
2023-11-18T04:03:53.548Z,4.29
2023-11-18T04:06:25.581Z,4.26
2023-11-18T04:08:55.077Z,4.23
2023-11-18T04:11:24.869Z,4.22
2023-11-18T04:13:55.680Z,4.22
2023-11-18T04:16:24.803Z,4.20
2023-11-18T04:18:54.418Z,4.18
2023-11-18T04:21:23.631Z,4.18
2023-11-18T04:23:53.193Z,4.16
2023-11-18T04:26:22.364Z,4.15
2023-11-18T04:28:51.932Z,4.14
2023-11-18T04:31:22.705Z,4.17
2023-11-18T04:33:52.230Z,4.15
2023-11-18T04:36:23.278Z,4.17
2023-11-18T04:38:52.999Z,4.19
2023-11-18T04:41:22.214Z,4.17
2023-11-18T04:43:52.058Z,4.21
2023-11-18T04:46:23.167Z,4.25
2023-11-18T04:48:54.616Z,4.23
2023-11-18T04:51:24.837Z,4.20
2023-11-18T04:53:54.590Z,4.21
2023-11-18T04:56:24.269Z,4.23
2023-11-18T04:58:53.885Z,4.20
2023-11-18T05:01:24.484Z,4.16
2023-11-18T05:03:54.347Z,4.18
2023-11-18T05:06:23.936Z,4.13
2023-11-18T05:08:53.387Z,4.12
2023-11-18T05:11:22.741Z,4.11
2023-11-18T05:13:52.149Z,4.16
2023-11-18T05:16:21.271Z,4.13
2023-11-18T05:18:52.377Z,4.17
2023-11-18T05:21:21.670Z,4.14
2023-11-18T05:23:52.122Z,4.05
2023-11-18T05:26:21.243Z,4.07
2023-11-18T05:28:51.422Z,4.06
2023-11-18T05:31:20.599Z,4.06
2023-11-18T05:33:56.579Z,4.04
2023-11-18T05:36:29.344Z,4.07
2023-11-18T05:38:59.327Z,4.06
2023-11-18T05:41:31.823Z,3.90
2023-11-18T05:44:01.855Z,3.80
2023-11-18T05:46:31.612Z,3.87
2023-11-18T05:49:08.871Z,3.89
2023-11-18T05:51:39.016Z,3.80
2023-11-18T05:54:08.948Z,3.71
2023-11-18T05:56:38.508Z,3.77
2023-11-18T05:59:07.962Z,3.77
2023-11-18T06:01:38.676Z,3.68
2023-11-18T06:04:11.279Z,3.73
2023-11-18T06:06:40.713Z,3.62
2023-11-18T06:09:19.099Z,3.40
2023-11-18T06:11:48.321Z,3.26
2023-11-18T06:14:19.462Z,3.20
2023-11-18T06:16:51.651Z,3.11
2023-11-18T06:19:22.606Z,3.08
2023-11-18T06:21:51.796Z,3.05
2023-11-18T06:24:22.799Z,3.03
2023-11-18T06:26:53.125Z,2.99
2023-11-18T06:29:23.053Z,2.99
2023-11-18T06:31:52.493Z,2.97
2023-11-18T06:34:23.677Z,2.94
2023-11-18T06:36:52.810Z,2.93
2023-11-18T06:39:27.028Z,2.90
2023-11-18T06:41:57.247Z,2.89
2023-11-18T06:44:27.179Z,2.88
2023-11-18T06:46:56.618Z,2.89
2023-11-18T06:49:27.653Z,2.85
2023-11-18T06:51:56.811Z,2.88
2023-11-18T06:54:28.430Z,2.84
2023-11-18T06:56:57.636Z,2.80
2023-11-18T06:59:27.071Z,2.81
2023-11-18T07:01:56.597Z,2.80
2023-11-18T07:04:27.759Z,2.80
2023-11-18T07:06:57.596Z,2.78
2023-11-18T07:09:27.300Z,2.76
2023-11-18T07:11:57.439Z,2.76
2023-11-18T07:14:28.340Z,2.76
2023-11-18T07:16:57.453Z,2.75
2023-11-18T07:19:30.105Z,2.77
2023-11-18T07:22:09.832Z,2.78
2023-11-18T07:24:40.253Z,2.80
2023-11-18T07:27:12.678Z,2.78
2023-11-18T07:29:43.149Z,2.79
2023-11-18T07:32:12.447Z,2.79
2023-11-18T07:34:43.285Z,2.80
2023-11-18T07:37:14.251Z,2.82
2023-11-18T07:39:46.225Z,2.82
2023-11-18T07:42:16.127Z,2.79
2023-11-18T07:44:45.825Z,2.78
2023-11-18T07:47:17.481Z,2.77
2023-11-18T07:49:49.353Z,2.75
2023-11-18T07:52:18.722Z,2.77
2023-11-18T07:54:52.313Z,2.79
2023-11-18T07:57:24.987Z,2.80
2023-11-18T07:59:56.622Z,2.83
2023-11-18T08:02:26.456Z,2.85
2023-11-18T08:04:57.934Z,2.84
2023-11-18T08:07:27.543Z,2.84
2023-11-18T08:09:56.964Z,2.87
2023-11-18T08:12:26.384Z,2.86
2023-11-18T08:14:55.814Z,2.89
2023-11-18T08:17:26.648Z,2.89
2023-11-18T08:19:59.097Z,2.90
2023-11-18T08:22:29.235Z,2.96
2023-11-18T08:25:00.241Z,2.97
2023-11-18T08:27:29.697Z,2.98
2023-11-18T08:29:59.642Z,2.98
2023-11-18T08:32:28.892Z,3.01
2023-11-18T08:35:00.010Z,3.01
2023-11-18T08:37:29.421Z,3.05
2023-11-18T08:39:58.846Z,3.06
2023-11-18T08:42:29.104Z,3.11
2023-11-18T08:45:02.289Z,3.13
2023-11-18T08:47:33.665Z,3.19
2023-11-18T08:50:13.221Z,3.22
2023-11-18T08:52:44.849Z,3.24
2023-11-18T08:55:20.818Z,3.28
2023-11-18T08:57:59.620Z,3.33
2023-11-18T09:00:49.376Z,3.34
2023-11-18T09:03:26.226Z,3.38
2023-11-18T09:06:00.818Z,3.42
2023-11-18T09:08:33.597Z,3.46
2023-11-18T09:11:06.479Z,3.48
2023-11-18T09:13:37.154Z,3.50
2023-11-18T09:16:10.095Z,3.51
2023-11-18T09:18:43.345Z,3.55
2023-11-18T09:21:17.149Z,3.59
2023-11-18T09:23:49.289Z,3.63
2023-11-18T09:26:19.297Z,3.66
2023-11-18T09:28:51.101Z,3.66
2023-11-18T09:31:24.015Z,3.66
2023-11-18T09:33:54.634Z,3.68
2023-11-18T09:36:25.598Z,3.72
2023-11-18T09:38:55.036Z,3.72
2023-11-18T09:41:29.070Z,3.73
2023-11-18T09:44:03.854Z,3.73
2023-11-18T09:46:36.122Z,3.75
2023-11-18T09:49:17.298Z,3.76
2023-11-18T09:51:49.244Z,3.77
2023-11-18T09:54:30.581Z,3.80
2023-11-18T09:57:10.757Z,3.84
2023-11-18T09:59:54.619Z,3.84
2023-11-18T10:02:27.043Z,3.86
2023-11-18T10:04:59.783Z,3.87
2023-11-18T10:07:34.307Z,3.88
2023-11-18T10:10:06.179Z,3.92
2023-11-18T10:12:39.165Z,3.93
2023-11-18T10:15:13.754Z,3.97
2023-11-18T10:17:56.408Z,4.00
2023-11-18T10:20:46.040Z,4.02
2023-11-18T10:23:21.148Z,4.05
2023-11-18T10:25:51.786Z,4.04
2023-11-18T10:28:29.075Z,4.04
2023-11-18T10:31:00.228Z,4.07
2023-11-18T10:33:32.081Z,4.11
2023-11-18T10:36:04.980Z,4.09
2023-11-18T10:38:44.727Z,4.10
2023-11-18T10:41:14.429Z,4.12
2023-11-18T10:43:45.700Z,4.13
2023-11-18T10:46:15.897Z,4.15
2023-11-18T10:48:48.778Z,4.17
2023-11-18T10:51:21.104Z,4.17
2023-11-18T10:54:00.190Z,4.18
2023-11-18T10:56:30.677Z,4.19
2023-11-18T10:59:01.472Z,4.18
2023-11-18T11:01:33.356Z,4.19
2023-11-18T11:04:05.956Z,4.20
2023-11-18T11:06:36.131Z,4.22
2023-11-18T11:09:15.585Z,4.20
2023-11-18T11:11:50.285Z,4.19
2023-11-18T11:14:22.691Z,4.21
2023-11-18T11:16:56.909Z,4.21
2023-11-18T11:19:30.880Z,4.25
2023-11-18T11:22:08.438Z,4.23
2023-11-18T11:25:00.925Z,4.23
2023-11-18T11:27:41.178Z,4.21
2023-11-18T11:30:19.635Z,4.22
2023-11-18T11:32:55.205Z,4.20
2023-11-18T11:35:31.754Z,4.23
2023-11-18T11:38:11.051Z,4.18
2023-11-18T11:40:43.553Z,4.19
2023-11-18T11:43:17.035Z,4.21
2023-11-18T11:45:48.672Z,4.24
2023-11-18T11:48:27.436Z,4.21
2023-11-18T11:51:16.296Z,4.21
2023-11-18T11:53:50.085Z,4.27
2023-11-18T11:56:25.484Z,4.25
2023-11-18T11:58:55.113Z,4.22
2023-11-18T12:01:31.413Z,4.20
2023-11-18T12:04:08.065Z,4.17
2023-11-18T12:06:45.469Z,4.14
2023-11-18T12:09:20.851Z,4.11
2023-11-18T12:11:52.323Z,4.11
2023-11-18T12:14:39.293Z,4.11
2023-11-18T12:17:10.982Z,4.09
2023-11-18T12:19:49.419Z,4.09
2023-11-18T12:22:26.082Z,4.11
2023-11-18T12:25:38.332Z,4.11
2023-11-18T12:28:16.165Z,4.14
2023-11-18T12:30:57.478Z,4.15
2023-11-18T12:33:30.052Z,4.16
2023-11-18T12:36:31.473Z,4.19
2023-11-18T12:39:45.671Z,4.21
2023-11-18T12:42:37.938Z,4.23
2023-11-18T12:45:37.737Z,4.26
2023-11-18T12:48:13.497Z,4.27
2023-11-18T12:50:47.569Z,4.28
2023-11-18T12:53:19.749Z,4.30
2023-11-18T12:55:54.578Z,4.30
2023-11-18T12:58:27.831Z,4.32
2023-11-18T13:01:01.481Z,4.34
2023-11-18T13:03:31.059Z,4.36
2023-11-18T13:06:02.100Z,4.34
2023-11-18T13:08:31.447Z,4.34
2023-11-18T13:11:06.242Z,4.35
2023-11-18T13:13:37.146Z,4.37
2023-11-18T13:16:10.098Z,4.35
2023-11-18T13:18:48.693Z,4.33
2023-11-18T13:21:18.901Z,4.34
2023-11-18T13:23:53.859Z,4.32
2023-11-18T13:26:23.982Z,4.31
2023-11-18T13:28:53.134Z,4.28
2023-11-18T13:31:23.984Z,4.28
2023-11-18T13:33:54.607Z,4.28
2023-11-18T13:36:25.840Z,4.28
2023-11-18T13:38:55.946Z,4.27
2023-11-18T13:41:33.259Z,4.28
2023-11-18T13:44:04.022Z,4.25
2023-11-18T13:46:35.021Z,4.24
2023-11-18T13:49:07.156Z,4.25
2023-11-18T13:51:37.716Z,4.23
2023-11-18T13:54:08.201Z,4.23
2023-11-18T13:56:37.638Z,4.23
2023-11-18T13:59:08.022Z,4.23
2023-11-18T14:01:39.180Z,4.21
2023-11-18T14:04:10.312Z,4.17
2023-11-18T14:06:41.035Z,4.17
2023-11-18T14:09:12.600Z,4.16
2023-11-18T14:11:42.529Z,4.12
2023-11-18T14:14:11.662Z,4.12
2023-11-18T14:16:42.620Z,4.10
2023-11-18T14:19:12.311Z,4.08
2023-11-18T14:21:42.765Z,4.05
2023-11-18T14:24:12.893Z,4.03
2023-11-18T14:26:43.118Z,3.99
2023-11-18T14:29:13.880Z,3.91
2023-11-18T14:31:45.151Z,3.85
2023-11-18T14:34:14.978Z,3.80
2023-11-18T14:36:46.026Z,3.76
2023-11-18T14:39:15.963Z,3.71
2023-11-18T14:41:45.516Z,3.66
2023-11-18T14:44:14.694Z,3.61
2023-11-18T14:46:47.052Z,3.50
2023-11-18T14:49:16.461Z,3.48
2023-11-18T14:51:45.919Z,3.42
2023-11-18T14:54:15.131Z,3.39
2023-11-18T14:56:44.747Z,3.31
2023-11-18T14:59:13.947Z,3.26
2023-11-18T15:01:45.402Z,3.17
2023-11-18T15:04:16.193Z,3.10
2023-11-18T15:06:46.407Z,3.02
2023-11-18T15:09:15.778Z,2.97
2023-11-18T15:11:46.826Z,3.15
2023-11-18T15:14:16.393Z,3.25
2023-11-18T15:16:47.862Z,3.32
2023-11-18T15:19:19.106Z,3.32
2023-11-18T15:21:48.657Z,3.31
2023-11-18T15:24:18.726Z,3.25
2023-11-18T15:26:51.025Z,3.18
2023-11-18T15:29:21.305Z,3.14
2023-11-18T15:31:51.047Z,3.10
2023-11-18T15:34:22.361Z,3.07
2023-11-18T15:36:52.762Z,3.05
2023-11-18T15:39:21.731Z,3.04
2023-11-18T15:41:51.430Z,2.99
2023-11-18T15:44:21.240Z,2.98
2023-11-18T15:46:51.767Z,2.93
2023-11-18T15:49:23.753Z,2.91
2023-11-18T15:51:53.617Z,2.90
2023-11-18T15:54:22.877Z,2.91
2023-11-18T15:56:52.298Z,2.91
2023-11-18T15:59:21.466Z,2.89
2023-11-18T16:01:50.826Z,2.88
2023-11-18T16:04:20.013Z,2.86
2023-11-18T16:06:51.252Z,2.88
2023-11-18T16:09:21.788Z,2.88
2023-11-18T16:11:52.014Z,2.88
2023-11-18T16:14:22.227Z,2.83
2023-11-18T16:16:52.251Z,2.76
2023-11-18T16:19:23.121Z,2.72
2023-11-18T16:21:54.465Z,2.70
2023-11-18T16:24:23.598Z,2.70
2023-11-18T16:26:53.566Z,2.66
2023-11-18T16:29:22.685Z,2.65
2023-11-18T16:31:52.567Z,2.64
2023-11-18T16:34:23.570Z,2.67
2023-11-18T16:36:57.867Z,2.66
2023-11-18T16:39:27.826Z,2.62
2023-11-18T16:41:57.335Z,2.62
2023-11-18T16:44:26.404Z,2.58
2023-11-18T16:46:56.871Z,2.60
2023-11-18T16:49:27.790Z,2.61
2023-11-18T16:52:00.720Z,2.61
2023-11-18T16:54:39.007Z,2.64
2023-11-18T16:57:10.522Z,2.59
2023-11-18T16:59:40.492Z,2.63
2023-11-18T17:02:10.359Z,2.66
2023-11-18T17:04:41.388Z,2.65
2023-11-18T17:07:15.118Z,2.70
2023-11-18T17:09:44.497Z,2.74
2023-11-18T17:12:13.866Z,2.70
2023-11-18T17:14:43.390Z,2.75
2023-11-18T17:17:12.991Z,2.76
2023-11-18T17:19:42.197Z,2.75
2023-11-18T17:22:13.481Z,2.76
2023-11-18T17:24:43.246Z,2.81
2023-11-18T17:27:13.233Z,2.87
2023-11-18T17:29:42.398Z,2.79
2023-11-18T17:32:12.455Z,2.83
2023-11-18T17:34:43.883Z,2.91
2023-11-18T17:37:15.371Z,2.95
2023-11-18T17:39:44.792Z,2.99
2023-11-18T17:42:14.211Z,2.98
2023-11-18T17:44:43.583Z,2.99
2023-11-18T17:47:13.064Z,3.03
2023-11-18T17:49:42.446Z,3.05
2023-11-18T17:52:13.556Z,3.05
2023-11-18T17:54:43.613Z,3.14
2023-11-18T17:57:16.209Z,3.20
2023-11-18T17:59:46.089Z,3.21
2023-11-18T18:02:16.916Z,3.25
2023-11-18T18:04:47.203Z,3.29
2023-11-18T18:07:18.295Z,3.23
2023-11-18T18:09:47.887Z,3.25
2023-11-18T18:12:17.274Z,3.26
2023-11-18T18:14:46.835Z,3.30
2023-11-18T18:17:16.664Z,3.35
2023-11-18T18:19:48.911Z,3.30
2023-11-18T18:22:19.878Z,3.33
2023-11-18T18:24:49.061Z,3.30
2023-11-18T18:27:20.676Z,3.34
2023-11-18T18:29:50.687Z,3.37
2023-11-18T18:32:22.141Z,3.38
2023-11-18T18:34:52.746Z,3.38
2023-11-18T18:37:27.368Z,3.37
2023-11-18T18:39:57.291Z,3.36
2023-11-18T18:42:27.408Z,3.38
2023-11-18T18:44:57.705Z,3.42
2023-11-18T18:47:29.788Z,3.45
2023-11-18T18:50:02.639Z,3.45
2023-11-18T18:52:35.633Z,3.43
2023-11-18T18:55:07.636Z,3.47
2023-11-18T18:57:37.749Z,3.45
2023-11-18T19:00:13.422Z,3.42
2023-11-18T19:02:44.248Z,3.49
2023-11-18T19:05:14.630Z,3.53
2023-11-18T19:07:47.727Z,3.52
2023-11-18T19:10:17.738Z,3.49
2023-11-18T19:12:49.791Z,3.45
2023-11-18T19:15:20.088Z,3.44
2023-11-18T19:17:52.314Z,3.49
2023-11-18T19:20:22.680Z,3.51
2023-11-18T19:22:55.520Z,3.49
2023-11-18T19:25:24.824Z,3.50
2023-11-18T19:27:54.236Z,3.53
2023-11-18T19:30:28.000Z,3.54
2023-11-18T19:32:58.176Z,3.51
2023-11-18T19:35:30.808Z,3.52
2023-11-18T19:38:07.874Z,3.53
2023-11-18T19:40:38.578Z,3.50
2023-11-18T19:43:10.395Z,3.50
2023-11-18T19:45:40.180Z,3.49
2023-11-18T19:48:09.703Z,3.50
2023-11-18T19:50:40.621Z,3.49
2023-11-18T19:53:13.983Z,3.49
2023-11-18T19:55:45.539Z,3.51
2023-11-18T19:58:16.379Z,3.50
2023-11-18T20:00:46.273Z,3.52
2023-11-18T20:03:17.108Z,3.53
2023-11-18T20:05:46.545Z,3.55
2023-11-18T20:08:18.384Z,3.54
2023-11-18T20:10:48.581Z,3.57
2023-11-18T20:13:19.066Z,3.59
2023-11-18T20:15:48.938Z,3.61
2023-11-18T20:18:19.825Z,3.61
2023-11-18T20:20:55.127Z,3.67
2023-11-18T20:23:28.808Z,3.68
2023-11-18T20:25:58.523Z,3.72
2023-11-18T20:28:27.946Z,3.76
2023-11-18T20:30:57.063Z,3.75
2023-11-18T20:33:27.160Z,3.72
2023-11-18T20:35:56.318Z,3.71
2023-11-18T20:38:28.753Z,3.62
2023-11-18T20:40:59.316Z,3.55
2023-11-18T20:43:31.144Z,3.52
2023-11-18T20:46:00.357Z,3.46
2023-11-18T20:48:33.149Z,3.43
2023-11-18T20:51:06.328Z,3.43
2023-11-18T20:53:38.115Z,3.44
2023-11-18T20:56:10.840Z,3.40
2023-11-18T20:58:42.590Z,3.42
2023-11-18T21:01:13.928Z,3.41
2023-11-18T21:03:44.820Z,3.39
2023-11-18T21:06:21.318Z,3.39
2023-11-18T21:08:56.025Z,3.38
2023-11-18T21:11:27.260Z,3.37
2023-11-18T21:13:57.294Z,3.36
2023-11-18T21:16:28.985Z,3.35
2023-11-18T21:19:02.758Z,3.36
2023-11-18T21:21:32.101Z,3.40
2023-11-18T21:24:04.742Z,3.39
2023-11-18T21:26:33.960Z,3.36
2023-11-18T21:29:03.626Z,3.37
2023-11-18T21:31:34.561Z,3.38
2023-11-18T21:34:05.797Z,3.41
2023-11-18T21:36:38.930Z,3.41
2023-11-18T21:39:16.472Z,3.45
2023-11-18T21:41:46.381Z,3.45
2023-11-18T21:44:22.061Z,3.45
2023-11-18T21:46:52.091Z,3.44
2023-11-18T21:49:21.702Z,3.44
2023-11-18T21:51:51.436Z,3.45
2023-11-18T21:54:22.076Z,3.45
2023-11-18T21:56:51.312Z,3.45
2023-11-18T21:59:20.711Z,3.47
2023-11-18T22:01:50.440Z,3.47
2023-11-18T22:04:21.514Z,3.48
2023-11-18T22:06:53.550Z,3.46
2023-11-18T22:09:27.341Z,3.46
2023-11-18T22:11:57.259Z,3.46
2023-11-18T22:14:27.396Z,3.46
2023-11-18T22:16:59.107Z,3.45
2023-11-18T22:19:29.795Z,3.45
2023-11-18T22:21:58.962Z,3.44
2023-11-18T22:24:30.366Z,3.43
2023-11-18T22:26:59.555Z,3.43
2023-11-18T22:29:30.260Z,3.42
2023-11-18T22:31:59.615Z,3.41
2023-11-18T22:34:29.192Z,3.41
2023-11-18T22:36:58.485Z,3.41
2023-11-18T22:39:30.067Z,3.39
2023-11-18T22:41:59.282Z,3.38
2023-11-18T22:44:28.691Z,3.37
2023-11-18T22:46:59.170Z,3.35
2023-11-18T22:49:28.980Z,3.36
2023-11-18T22:51:58.450Z,3.35
2023-11-18T22:54:29.133Z,3.33
2023-11-18T22:56:58.442Z,3.31
2023-11-18T22:59:27.838Z,3.32
2023-11-18T23:01:57.730Z,3.31
2023-11-18T23:04:29.210Z,3.31
2023-11-18T23:06:58.779Z,3.31
2023-11-18T23:09:29.553Z,3.29
2023-11-18T23:11:58.666Z,3.27
2023-11-18T23:14:29.787Z,3.29
2023-11-18T23:17:08.212Z,3.27
2023-11-18T23:19:47.796Z,3.26
2023-11-18T23:22:20.583Z,3.24
2023-11-18T23:24:51.673Z,3.25
2023-11-18T23:27:20.961Z,3.24
2023-11-18T23:29:50.648Z,3.25
2023-11-18T23:32:20.701Z,3.25
2023-11-18T23:34:50.505Z,3.23
2023-11-18T23:37:20.373Z,3.22
2023-11-18T23:39:55.331Z,3.22
2023-11-18T23:42:24.729Z,3.19
2023-11-18T23:44:54.462Z,3.20
2023-11-18T23:47:23.765Z,3.21
2023-11-18T23:52:25.330Z,3.19
2023-11-18T23:54:56.298Z,3.18
2023-11-18T23:57:25.586Z,3.20
2023-11-18T23:59:56.865Z,3.17
